createdAt,value
2022-11-14T00:00:34.920Z,101958.25
2022-11-14T00:03:03.641Z,101944.19
2022-11-14T00:05:31.665Z,101941.91
2022-11-14T00:07:59.589Z,101939.44
2022-11-14T00:10:27.567Z,101945.78
2022-11-14T00:12:55.448Z,101937.31
2022-11-14T00:15:24.712Z,101933.97
2022-11-14T00:17:52.618Z,101932.78
2022-11-14T00:20:20.775Z,101929.56
2022-11-14T00:22:48.649Z,101921.22
2022-11-14T00:25:16.651Z,101916.97
2022-11-14T00:27:44.545Z,101924.88
2022-11-14T00:30:12.898Z,101915.06
2022-11-14T00:32:42.176Z,101915.25
2022-11-14T00:35:10.788Z,101916.97
2022-11-14T00:37:38.689Z,101904.81
2022-11-14T00:40:07.334Z,101904.78
2022-11-14T00:42:35.738Z,101905.09
2022-11-14T00:45:03.702Z,101894.78
2022-11-14T00:47:31.666Z,101886.31
2022-11-14T00:50:00.917Z,101884.47
2022-11-14T00:52:28.829Z,101885.63
2022-11-14T00:54:56.730Z,101888.25
2022-11-14T00:57:24.615Z,101885.53
2022-11-14T00:59:55.618Z,101889.84
2022-11-14T01:02:23.945Z,101888.78
2022-11-14T01:04:51.867Z,101874.41
2022-11-14T01:07:21.182Z,101876.88
2022-11-14T01:09:49.051Z,101873.16
2022-11-14T01:12:16.935Z,101870.50
2022-11-14T01:14:44.890Z,101868.41
2022-11-14T01:17:12.780Z,101866.31
2022-11-14T01:19:40.692Z,101861.09
2022-11-14T01:22:08.574Z,101861.88
2022-11-14T01:24:37.909Z,101863.13
2022-11-14T01:27:05.868Z,101848.28
2022-11-14T01:29:33.772Z,101842.31
2022-11-14T01:32:01.660Z,101846.47
2022-11-14T01:34:30.474Z,101840.78
2022-11-14T01:36:58.400Z,101835.94
2022-11-14T01:39:27.493Z,101836.56
2022-11-14T01:41:56.935Z,101832.31
2022-11-14T01:44:45.540Z,101836.91
2022-11-14T01:47:14.159Z,101830.91
2022-11-14T01:49:43.867Z,101830.06
2022-11-14T01:52:14.167Z,101828.03
2022-11-14T01:54:47.766Z,101836.06
2022-11-14T01:57:19.425Z,101827.41
2022-11-14T01:59:50.422Z,101819.22
2022-11-14T02:02:20.188Z,101820.28
2022-11-14T02:04:51.718Z,101809.16
2022-11-14T02:07:20.168Z,101798.25
2022-11-14T02:09:48.928Z,101792.41
2022-11-14T02:12:19.386Z,101789.63
2022-11-14T02:14:49.785Z,101791.47
2022-11-14T02:17:34.020Z,101788.88
2022-11-14T02:20:15.505Z,101779.38
2022-11-14T02:22:44.080Z,101786.06
2022-11-14T02:25:14.632Z,101771.22
2022-11-14T02:27:42.992Z,101772.94
2022-11-14T02:30:13.413Z,101768.13
2022-11-14T02:35:30.600Z,101774.28
2022-11-14T02:37:58.469Z,101767.28
2022-11-14T02:40:26.397Z,101761.94
2022-11-14T02:42:54.386Z,101759.44
2022-11-14T02:45:22.314Z,101745.75
2022-11-14T02:47:50.200Z,101750.47
2022-11-14T02:50:18.512Z,101745.19
2022-11-14T02:52:47.787Z,101732.63
2022-11-14T02:55:15.817Z,101734.88
2022-11-14T02:57:43.717Z,101727.13
2022-11-14T03:00:15.203Z,101724.06
2022-11-14T03:02:43.515Z,101718.88
2022-11-14T03:05:11.631Z,101715.47
2022-11-14T03:07:39.570Z,101712.03
2022-11-14T03:10:09.823Z,101710.66
2022-11-14T03:12:37.779Z,101707.84
2022-11-14T03:15:06.413Z,101716.16
2022-11-14T03:17:35.066Z,101705.47
2022-11-14T03:20:02.980Z,101717.50
2022-11-14T03:22:30.875Z,101709.31
2022-11-14T03:24:58.749Z,101720.69
2022-11-14T03:27:28.089Z,101715.28
2022-11-14T03:29:55.988Z,101704.59
2022-11-14T03:32:24.087Z,101708.75
2022-11-14T03:34:51.961Z,101705.06
2022-11-14T03:37:19.889Z,101697.97
2022-11-14T03:39:47.868Z,101699.88
2022-11-14T03:42:15.756Z,101697.84
2022-11-14T03:44:45.063Z,101696.41
2022-11-14T03:47:12.973Z,101696.47
2022-11-14T03:49:40.936Z,101698.53
2022-11-14T03:52:08.816Z,101689.66
2022-11-14T03:54:36.745Z,101696.13
2022-11-14T03:57:04.836Z,101690.63
2022-11-14T03:59:32.749Z,101687.16
2022-11-14T04:02:02.435Z,101684.38
2022-11-14T04:04:30.361Z,101677.53
2022-11-14T04:06:58.428Z,101676.19
2022-11-14T04:09:27.600Z,101670.09
2022-11-14T04:11:55.481Z,101672.13
2022-11-14T04:14:23.396Z,101664.13
2022-11-14T04:16:51.277Z,101672.00
2022-11-14T04:19:20.578Z,101665.88
2022-11-14T04:21:48.493Z,101662.25
2022-11-14T04:24:16.388Z,101653.41
2022-11-14T04:26:44.261Z,101647.19
2022-11-14T04:29:12.162Z,101653.22
2022-11-14T04:31:40.052Z,101641.09
2022-11-14T04:34:07.983Z,101638.00
2022-11-14T04:36:37.244Z,101628.38
2022-11-14T04:39:05.298Z,101636.47
2022-11-14T04:41:33.223Z,101625.41
2022-11-14T04:44:01.216Z,101629.25
2022-11-14T04:46:29.121Z,101623.75
2022-11-14T04:48:57.004Z,101622.59
2022-11-14T04:51:24.912Z,101629.56
2022-11-14T04:53:54.188Z,101620.47
2022-11-14T04:56:23.336Z,101607.56
2022-11-14T04:58:51.269Z,101612.94
2022-11-14T05:01:19.215Z,101609.22
2022-11-14T05:03:47.186Z,101606.78
2022-11-14T05:06:15.104Z,101605.34
2022-11-14T05:08:43.369Z,101603.53
2022-11-14T05:11:16.644Z,101607.41
2022-11-14T05:13:44.608Z,101608.72
2022-11-14T05:16:12.996Z,101605.66
2022-11-14T05:18:46.721Z,101605.53
2022-11-14T05:21:15.653Z,101605.47
2022-11-14T05:23:43.531Z,101608.03
2022-11-14T05:26:13.037Z,101611.50
2022-11-14T05:28:42.441Z,101600.91
2022-11-14T05:31:12.395Z,101609.69
2022-11-14T05:33:40.625Z,101604.09
2022-11-14T05:36:10.756Z,101601.59
2022-11-14T05:38:39.220Z,101594.09
2022-11-14T05:41:07.717Z,101601.69
2022-11-14T05:43:35.865Z,101605.06
2022-11-14T05:46:06.571Z,101605.38
2022-11-14T05:48:34.740Z,101598.81
2022-11-14T05:51:04.868Z,101586.19
2022-11-14T05:53:34.381Z,101593.53
2022-11-14T05:56:02.759Z,101594.47
2022-11-14T05:58:31.047Z,101588.88
2022-11-14T06:01:09.157Z,101595.22
2022-11-14T06:03:38.901Z,101596.59
2022-11-14T06:06:09.490Z,101597.56
2022-11-14T06:08:37.972Z,101593.78
2022-11-14T06:11:07.287Z,101585.34
2022-11-14T06:13:35.858Z,101579.75
2022-11-14T06:16:04.948Z,101586.09
2022-11-14T06:18:35.081Z,101584.56
2022-11-14T06:21:04.217Z,101585.69
2022-11-14T06:23:32.134Z,101591.47
2022-11-14T06:26:01.565Z,101596.78
2022-11-14T06:28:29.841Z,101596.28
2022-11-14T06:30:59.489Z,101594.47
2022-11-14T06:33:27.486Z,101597.75
2022-11-14T06:36:00.481Z,101590.50
2022-11-14T06:38:29.027Z,101581.53
2022-11-14T06:41:03.548Z,101579.94
2022-11-14T06:43:34.283Z,101583.22
2022-11-14T06:46:02.359Z,101588.50
2022-11-14T06:48:30.550Z,101589.84
2022-11-14T06:51:01.111Z,101588.13
2022-11-14T06:53:30.773Z,101586.00
2022-11-14T06:55:59.781Z,101593.84
2022-11-14T06:58:29.192Z,101584.69
2022-11-14T07:00:57.542Z,101586.75
2022-11-14T07:03:25.620Z,101590.81
2022-11-14T07:05:53.585Z,101588.00
2022-11-14T07:08:22.899Z,101584.94
2022-11-14T07:10:50.777Z,101589.75
2022-11-14T07:13:18.729Z,101591.78
2022-11-14T07:15:52.066Z,101594.28
2022-11-14T07:18:20.091Z,101589.19
2022-11-14T07:20:48.040Z,101599.09
2022-11-14T07:23:21.507Z,101600.91
2022-11-14T07:25:52.311Z,101602.66
2022-11-14T07:28:20.374Z,101598.78
2022-11-14T07:30:48.322Z,101601.69
2022-11-14T07:33:16.192Z,101611.47
2022-11-14T07:35:44.229Z,101606.59
2022-11-14T07:38:12.121Z,101603.91
2022-11-14T07:40:39.995Z,101606.38
2022-11-14T07:43:09.303Z,101601.50
2022-11-14T07:45:37.255Z,101600.97
2022-11-14T07:48:05.272Z,101593.88
2022-11-14T07:50:33.192Z,101602.41
2022-11-14T07:53:01.067Z,101595.22
2022-11-14T07:55:28.949Z,101591.56
2022-11-14T07:57:58.639Z,101590.91
2022-11-14T08:00:27.955Z,101593.03
2022-11-14T08:02:55.863Z,101595.31
2022-11-14T08:05:23.920Z,101587.91
2022-11-14T08:07:52.132Z,101589.28
2022-11-14T08:10:20.505Z,101579.06
2022-11-14T08:13:04.650Z,101580.28
2022-11-14T08:15:38.653Z,101585.53
2022-11-14T08:18:07.069Z,101574.16
2022-11-14T08:20:34.964Z,101566.75
2022-11-14T08:23:03.846Z,101565.19
2022-11-14T08:25:32.077Z,101567.59
2022-11-14T08:27:59.972Z,101574.25
2022-11-14T08:30:28.110Z,101572.97
2022-11-14T08:32:57.373Z,101565.66
2022-11-14T08:35:25.341Z,101567.78
2022-11-14T08:37:53.287Z,101567.94
2022-11-14T08:40:21.260Z,101576.56
2022-11-14T08:42:49.147Z,101571.16
2022-11-14T08:45:17.285Z,101568.56
2022-11-14T08:47:52.059Z,101568.72
2022-11-14T08:50:21.375Z,101572.41
2022-11-14T08:52:52.408Z,101571.63
2022-11-14T08:55:20.586Z,101570.19
2022-11-14T08:57:49.956Z,101568.56
2022-11-14T09:00:18.653Z,101577.41
2022-11-14T09:02:46.587Z,101568.75
2022-11-14T09:05:14.509Z,101562.03
2022-11-14T09:07:43.789Z,101557.09
2022-11-14T09:10:11.764Z,101562.31
2022-11-14T09:12:39.686Z,101563.56
2022-11-14T09:15:08.214Z,101560.09
2022-11-14T09:17:36.169Z,101562.69
2022-11-14T09:20:04.508Z,101564.69
2022-11-14T09:22:32.909Z,101558.06
2022-11-14T09:25:02.211Z,101559.44
2022-11-14T09:27:30.095Z,101561.66
2022-11-14T09:29:58.072Z,101560.59
2022-11-14T09:32:25.960Z,101566.34
2022-11-14T09:34:53.872Z,101547.59
2022-11-14T09:37:21.786Z,101550.75
2022-11-14T09:39:49.676Z,101542.84
2022-11-14T09:42:27.969Z,101540.81
2022-11-14T09:44:57.335Z,101536.13
2022-11-14T09:47:28.811Z,101522.34
2022-11-14T09:50:01.968Z,101541.78
2022-11-14T09:52:36.756Z,101538.03
2022-11-14T09:55:12.930Z,101541.41
2022-11-14T09:57:42.714Z,101548.44
2022-11-14T10:00:16.299Z,101542.34
2022-11-14T10:02:56.833Z,101541.97
2022-11-14T10:05:43.876Z,101532.06
2022-11-14T10:08:34.059Z,101534.28
2022-11-14T10:11:08.122Z,101538.59
2022-11-14T10:13:49.380Z,101532.38
2022-11-14T10:16:21.165Z,101518.47
2022-11-14T10:19:04.170Z,101517.00
2022-11-14T10:21:42.208Z,101515.38
2022-11-14T10:24:22.813Z,101515.38
2022-11-14T10:26:58.474Z,101508.97
2022-11-14T10:29:55.028Z,101503.78
2022-11-14T10:32:32.684Z,101500.81
2022-11-14T10:35:04.147Z,101491.53
2022-11-14T10:37:34.940Z,101480.22
2022-11-14T10:40:15.813Z,101471.47
2022-11-14T10:42:46.806Z,101480.22
2022-11-14T10:45:19.936Z,101475.53
2022-11-14T10:47:50.411Z,101474.53
2022-11-14T10:50:21.688Z,101471.19
2022-11-14T10:52:49.897Z,101457.00
2022-11-14T10:55:20.716Z,101462.94
2022-11-14T10:57:50.406Z,101464.63
2022-11-14T11:00:23.080Z,101470.19
2022-11-14T11:02:53.451Z,101466.81
2022-11-14T11:05:23.629Z,101458.50
2022-11-14T11:08:36.084Z,101449.88
2022-11-14T11:11:17.697Z,101446.13
2022-11-14T11:13:53.010Z,101435.22
2022-11-14T11:16:23.744Z,101426.69
2022-11-14T11:18:51.810Z,101412.22
2022-11-14T11:21:21.106Z,101407.84
2022-11-14T11:23:51.355Z,101407.94
2022-11-14T11:26:24.316Z,101402.00
2022-11-14T11:29:16.812Z,101405.56
2022-11-14T11:31:53.507Z,101400.81
2022-11-14T11:34:26.180Z,101387.84
2022-11-14T11:36:58.668Z,101379.53
2022-11-14T11:39:29.588Z,101376.03
2022-11-14T11:42:10.072Z,101366.44
2022-11-14T11:44:41.415Z,101357.91
2022-11-14T11:47:14.876Z,101370.97
2022-11-14T11:49:51.781Z,101361.69
2022-11-14T11:52:29.691Z,101362.22
2022-11-14T11:55:02.313Z,101357.56
2022-11-14T11:57:35.089Z,101366.53
2022-11-14T12:00:07.263Z,101349.81
2022-11-14T12:02:38.475Z,101374.84
2022-11-14T12:05:07.163Z,101393.22
2022-11-14T12:07:41.841Z,101397.84
2022-11-14T12:10:18.045Z,101406.59
2022-11-14T12:13:30.908Z,101402.91
2022-11-14T12:16:18.270Z,101399.56
2022-11-14T12:19:01.149Z,101407.81
2022-11-14T12:21:38.130Z,101417.44
2022-11-14T12:24:20.595Z,101397.41
2022-11-14T12:27:12.711Z,101388.75
2022-11-14T12:29:53.018Z,101394.09
2022-11-14T12:32:28.571Z,101394.41
2022-11-14T12:34:58.892Z,101385.63
2022-11-14T12:37:32.850Z,101371.09
2022-11-14T12:40:03.621Z,101375.69
2022-11-14T12:42:32.937Z,101373.06
2022-11-14T12:45:00.854Z,101356.75
2022-11-14T12:47:29.688Z,101361.69
2022-11-14T12:50:20.634Z,101359.25
2022-11-14T12:52:50.149Z,101361.78
2022-11-14T12:56:00.967Z,101357.94
2022-11-14T12:58:51.695Z,101356.75
2022-11-14T13:01:48.355Z,101347.47
2022-11-14T13:04:36.364Z,101353.53
2022-11-14T13:07:19.389Z,101344.25
2022-11-14T13:10:02.649Z,101351.03
2022-11-14T13:12:50.078Z,101358.13
2022-11-14T13:15:43.434Z,101343.09
2022-11-14T13:18:34.967Z,101349.22
2022-11-14T13:21:20.680Z,101338.31
2022-11-14T13:23:59.447Z,101337.63
2022-11-14T13:26:43.957Z,101340.09
2022-11-14T13:30:00.198Z,101340.84
2022-11-14T13:33:05.055Z,101341.53
2022-11-14T13:36:00.762Z,101344.41
2022-11-14T13:39:00.078Z,101343.22
2022-11-14T13:41:53.452Z,101338.13
2022-11-14T13:44:44.960Z,101336.50
2022-11-14T13:47:44.675Z,101342.41
2022-11-14T13:50:13.931Z,101329.03
2022-11-14T13:52:44.694Z,101319.19
2022-11-14T13:55:21.841Z,101328.13
2022-11-14T13:58:00.498Z,101326.19
2022-11-14T14:00:31.739Z,101327.28
2022-11-14T14:03:20.616Z,101324.16
2022-11-14T14:06:05.106Z,101305.13
2022-11-14T14:08:48.356Z,101297.84
2022-11-14T14:11:38.869Z,101291.81
2022-11-14T14:14:20.132Z,101290.44
2022-11-14T14:16:52.725Z,101285.13
2022-11-14T14:19:35.640Z,101282.91
2022-11-14T14:22:05.666Z,101277.72
2022-11-14T14:24:46.605Z,101267.00
2022-11-14T14:27:22.075Z,101277.31
2022-11-14T14:29:56.212Z,101289.13
2022-11-14T14:32:25.565Z,101282.84
2022-11-14T14:34:56.989Z,101282.41
2022-11-14T14:37:26.521Z,101281.44
2022-11-14T14:39:59.060Z,101274.88
2022-11-14T14:42:34.813Z,101267.63
2022-11-14T14:45:04.483Z,101267.88
2022-11-14T14:47:36.063Z,101263.91
2022-11-14T14:50:05.965Z,101263.91
2022-11-14T14:52:36.113Z,101264.13
2022-11-14T14:55:06.528Z,101262.84
2022-11-14T14:57:35.816Z,101260.25
2022-11-14T15:00:06.438Z,101268.06
2022-11-14T15:02:34.784Z,101260.72
2022-11-14T15:05:03.157Z,101262.13
2022-11-14T15:07:31.345Z,101264.81
2022-11-14T15:10:01.381Z,101259.81
2022-11-14T15:12:31.226Z,101262.59
2022-11-14T15:15:00.611Z,101257.09
2022-11-14T15:17:34.487Z,101258.84
2022-11-14T15:20:03.749Z,101255.50
2022-11-14T15:22:32.728Z,101248.38
2022-11-14T15:25:24.190Z,101247.88
2022-11-14T15:27:54.973Z,101255.72
2022-11-14T15:30:26.904Z,101253.47
2022-11-14T15:32:56.312Z,101252.94
2022-11-14T15:35:30.314Z,101256.84
2022-11-14T15:38:36.930Z,101245.25
2022-11-14T15:41:29.721Z,101247.22
2022-11-14T15:44:02.049Z,101251.13
2022-11-14T15:46:38.864Z,101251.75
2022-11-14T15:49:11.047Z,101251.22
2022-11-14T15:51:44.448Z,101255.09
2022-11-14T15:54:29.830Z,101257.66
2022-11-14T15:56:59.260Z,101251.50
2022-11-14T15:59:27.988Z,101252.00
2022-11-14T16:02:00.341Z,101251.47
2022-11-14T16:04:31.716Z,101260.00
2022-11-14T16:06:59.606Z,101256.38
2022-11-14T16:09:27.558Z,101244.69
2022-11-14T16:11:55.519Z,101247.69
2022-11-14T16:14:23.504Z,101240.38
2022-11-14T16:16:51.476Z,101229.47
2022-11-14T16:19:21.986Z,101230.88
2022-11-14T16:21:50.102Z,101225.81
2022-11-14T16:24:19.770Z,101226.63
2022-11-14T16:26:47.813Z,101217.88
2022-11-14T16:29:15.734Z,101216.31
2022-11-14T16:31:43.937Z,101220.91
2022-11-14T16:34:16.812Z,101216.50
2022-11-14T16:36:46.138Z,101231.59
2022-11-14T16:39:14.460Z,101222.72
2022-11-14T16:41:42.446Z,101218.97
2022-11-14T16:44:15.698Z,101214.56
2022-11-14T16:46:43.815Z,101215.72
2022-11-14T16:49:15.155Z,101209.38
2022-11-14T16:51:48.460Z,101212.72
2022-11-14T16:54:19.436Z,101207.41
2022-11-14T16:56:47.795Z,101200.53
2022-11-14T16:59:15.883Z,101203.97
2022-11-14T17:01:43.863Z,101203.31
2022-11-14T17:04:12.652Z,101205.38
2022-11-14T17:06:40.565Z,101210.09
2022-11-14T17:09:08.546Z,101202.75
2022-11-14T17:11:37.805Z,101197.28
2022-11-14T17:14:05.780Z,101191.41
2022-11-14T17:16:33.728Z,101197.88
2022-11-14T17:19:01.643Z,101187.84
2022-11-14T17:21:29.649Z,101182.66
2022-11-14T17:23:58.240Z,101191.06
2022-11-14T17:26:27.063Z,101190.50
2022-11-14T17:28:56.376Z,101191.38
2022-11-14T17:31:24.306Z,101185.53
2022-11-14T17:33:52.974Z,101178.00
2022-11-14T17:36:21.341Z,101174.53
2022-11-14T17:38:49.285Z,101176.16
2022-11-14T17:41:17.177Z,101170.78
2022-11-14T17:43:45.156Z,101172.56
2022-11-14T17:46:16.227Z,101166.75
2022-11-14T17:48:44.641Z,101174.34
2022-11-14T17:51:14.327Z,101164.66
2022-11-14T17:53:42.539Z,101160.28
2022-11-14T17:56:14.353Z,101160.41
2022-11-14T17:58:42.626Z,101157.13
2022-11-14T18:01:11.477Z,101152.88
2022-11-14T18:03:40.889Z,101140.81
2022-11-14T18:06:09.871Z,101136.50
2022-11-14T18:08:38.232Z,101131.06
2022-11-14T18:11:08.159Z,101136.88
2022-11-14T18:13:36.164Z,101130.09
2022-11-14T18:16:06.582Z,101135.81
2022-11-14T18:18:35.385Z,101138.44
2022-11-14T18:21:09.625Z,101130.56
2022-11-14T18:23:38.722Z,101142.47
2022-11-14T18:26:10.799Z,101148.88
2022-11-14T18:28:38.933Z,101141.03
2022-11-14T18:31:08.413Z,101139.97
2022-11-14T18:33:36.672Z,101142.59
2022-11-14T18:36:06.663Z,101140.09
2022-11-14T18:38:36.216Z,101134.50
2022-11-14T18:41:05.289Z,101138.38
2022-11-14T18:43:34.159Z,101141.28
2022-11-14T18:46:08.741Z,101141.13
2022-11-14T18:48:37.710Z,101133.88
2022-11-14T18:51:07.373Z,101131.25
2022-11-14T18:53:37.547Z,101130.41
2022-11-14T18:56:06.187Z,101126.44
2022-11-14T18:58:36.088Z,101121.72
2022-11-14T19:01:13.075Z,101113.63
2022-11-14T19:03:41.129Z,101117.41
2022-11-14T19:06:10.681Z,101114.78
2022-11-14T19:08:40.191Z,101117.59
2022-11-14T19:11:09.659Z,101119.53
2022-11-14T19:13:37.560Z,101115.41
2022-11-14T19:16:06.563Z,101119.75
2022-11-14T19:18:34.970Z,101119.88
2022-11-14T19:21:04.274Z,101118.28
2022-11-14T19:23:32.574Z,101116.53
2022-11-14T19:26:03.073Z,101117.28
2022-11-14T19:28:31.157Z,101108.13
2022-11-14T19:31:02.620Z,101106.63
2022-11-14T19:33:30.876Z,101105.09
2022-11-14T19:35:59.419Z,101104.53
2022-11-14T19:38:27.662Z,101102.50
2022-11-14T19:40:57.721Z,101094.75
2022-11-14T19:43:30.443Z,101093.25
2022-11-14T19:46:02.180Z,101089.78
2022-11-14T19:48:30.157Z,101089.72
2022-11-14T19:51:02.397Z,101086.34
2022-11-14T19:53:31.005Z,101087.53
2022-11-14T19:56:00.930Z,101089.66
2022-11-14T19:58:30.493Z,101082.97
2022-11-14T20:01:05.682Z,101076.41
2022-11-14T20:03:34.354Z,101075.34
2022-11-14T20:06:03.075Z,101077.25
2022-11-14T20:08:31.329Z,101071.75
2022-11-14T20:11:00.003Z,101062.72
2022-11-14T20:13:32.412Z,101071.03
2022-11-14T20:16:01.305Z,101060.91
2022-11-14T20:18:30.579Z,101063.78
2022-11-14T20:20:58.564Z,101059.19
2022-11-14T20:23:27.677Z,101056.22
2022-11-14T20:25:55.833Z,101051.19
2022-11-14T20:28:23.846Z,101043.22
2022-11-14T20:30:53.472Z,101046.44
2022-11-14T20:33:21.874Z,101039.00
2022-11-14T20:35:50.684Z,101038.06
2022-11-14T20:38:19.467Z,101039.84
2022-11-14T20:40:54.824Z,101040.38
2022-11-14T20:43:23.177Z,101041.13
2022-11-14T20:45:59.767Z,101023.22
2022-11-14T20:48:28.573Z,101027.66
2022-11-14T20:51:03.838Z,101024.88
2022-11-14T20:53:32.456Z,101022.06
2022-11-14T20:56:01.046Z,101022.28
2022-11-14T20:58:29.661Z,101022.66
2022-11-14T21:00:59.312Z,101012.22
2022-11-14T21:03:27.742Z,101005.28
2022-11-14T21:05:56.542Z,101007.78
2022-11-14T21:08:24.484Z,101000.06
2022-11-14T21:10:59.796Z,100990.56
2022-11-14T21:13:45.762Z,100988.84
2022-11-14T21:16:17.338Z,100984.94
2022-11-14T21:18:48.178Z,100985.28
2022-11-14T21:21:17.940Z,100989.59
2022-11-14T21:23:46.581Z,100989.31
2022-11-14T21:26:16.302Z,100988.28
2022-11-14T21:28:45.721Z,100989.44
2022-11-14T21:31:16.847Z,100982.94
2022-11-14T21:33:44.965Z,100969.13
2022-11-14T21:36:43.298Z,100980.28
2022-11-14T21:39:02.432Z,100976.00
2022-11-14T21:41:31.388Z,100971.69
2022-11-14T21:44:00.592Z,100961.50
2022-11-14T21:46:30.257Z,100958.88
2022-11-14T21:49:00.549Z,100962.44
2022-11-14T21:51:29.356Z,100976.28
2022-11-14T21:53:59.397Z,100972.13
2022-11-14T21:56:29.028Z,100969.34
2022-11-14T21:59:11.250Z,100969.94
2022-11-14T22:01:59.191Z,100972.53
2022-11-14T22:04:27.405Z,100959.97
2022-11-14T22:06:55.915Z,100955.66
2022-11-14T22:09:23.926Z,100957.84
2022-11-14T22:11:51.839Z,100954.41
2022-11-14T22:14:19.769Z,100957.31
2022-11-14T22:16:49.071Z,100956.53
2022-11-14T22:19:19.766Z,100950.19
2022-11-14T22:21:47.930Z,100949.16
2022-11-14T22:24:15.923Z,100949.41
2022-11-14T22:26:43.858Z,100943.41
2022-11-14T22:29:11.990Z,100934.09
2022-11-14T22:31:39.986Z,100924.13
2022-11-14T22:34:09.269Z,100922.59
2022-11-14T22:36:37.234Z,100918.28
2022-11-14T22:39:05.714Z,100920.09
2022-11-14T22:41:34.149Z,100916.63
2022-11-14T22:44:02.413Z,100917.88
2022-11-14T22:46:30.880Z,100925.56
2022-11-14T22:48:59.276Z,100915.50
2022-11-14T22:51:29.060Z,100917.03
2022-11-14T22:53:58.514Z,100915.88
2022-11-14T22:56:27.737Z,100906.56
2022-11-14T22:58:56.004Z,100902.94
2022-11-14T23:01:25.145Z,100908.97
2022-11-14T23:03:56.372Z,100898.59
2022-11-14T23:06:25.112Z,100901.00
2022-11-14T23:08:55.214Z,100904.56
2022-11-14T23:11:24.845Z,100892.69
2022-11-14T23:13:54.037Z,100900.41
2022-11-14T23:16:23.578Z,100887.88
2022-11-14T23:18:52.365Z,100907.66
2022-11-14T23:21:22.452Z,100898.78
2022-11-14T23:23:54.899Z,100900.81
2022-11-14T23:26:22.977Z,100898.56
2022-11-14T23:28:50.876Z,100895.16
2022-11-14T23:31:19.423Z,100896.91
2022-11-14T23:33:47.701Z,100892.78
2022-11-14T23:36:15.903Z,100890.16
2022-11-14T23:38:43.827Z,100884.63
2022-11-14T23:41:18.072Z,100876.38
2022-11-14T23:43:46.019Z,100876.59
2022-11-14T23:46:14.192Z,100873.41
2022-11-14T23:48:42.370Z,100871.19
2022-11-14T23:51:10.680Z,100868.72
2022-11-14T23:53:39.111Z,100870.22
2022-11-14T23:56:07.230Z,100870.16
2022-11-14T23:58:36.484Z,100868.63
